Time;durP1;ratioP1;P1;durP2;ratioP2;P2;SDS_P1;SDS_P2;PMS_P1;PMS_P2;Temp;Humidity;BMP_temperature;BMP_pressure;BME280_temperature;BME280_humidity;BME280_pressure;Samples;Min_cycle;Max_cycle;Signal;HPM_P1;HPM_P2
2023/01/14 00:01:16;;;;;;;17.03;2.23;;;7.30;99.90;;;;;;5074736;28;20032;-79
2023/01/14 00:03:42;;;;;;;19.50;3.23;;;7.30;99.90;;;;;;5074614;28;20032;-79
2023/01/14 00:06:11;;;;;;;22.07;2.53;;;7.30;99.90;;;;;;5056911;28;20074;-79
2023/01/14 00:08:36;;;;;;;18.03;2.57;;;7.20;99.90;;;;;;5074625;28;20025;-79
2023/01/14 00:11:05;;;;;;;18.37;2.20;;;7.20;99.90;;;;;;5073441;28;20056;-79
2023/01/14 00:13:35;;;;;;;10.10;1.93;;;7.20;99.90;;;;;;5074567;28;20028;-79
2023/01/14 00:16:02;;;;;;;24.87;2.83;;;7.20;99.90;;;;;;5074583;28;20033;-79
2023/01/14 00:18:29;;;;;;;17.13;3.00;;;7.20;99.90;;;;;;5056654;28;20503;-79
2023/01/14 00:20:56;;;;;;;19.10;2.50;;;7.20;99.90;;;;;;5074243;28;20146;-79
2023/01/14 00:23:22;;;;;;;21.27;4.07;;;7.10;99.90;;;;;;5074191;28;20094;-79
2023/01/14 00:25:47;;;;;;;19.93;2.97;;;7.10;99.90;;;;;;5090354;28;20464;-78
2023/01/14 00:28:13;;;;;;;24.17;2.80;;;7.00;99.90;;;;;;5056105;28;20055;-78
2023/01/14 00:30:41;;;;;;;18.83;2.40;;;7.00;99.90;;;;;;5073008;28;20029;-78
2023/01/14 00:33:06;;;;;;;19.60;2.53;;;7.00;99.90;;;;;;5056548;28;20024;-79
2023/01/14 00:35:32;;;;;;;24.90;3.27;;;7.00;99.90;;;;;;5072820;28;20111;-78
2023/01/14 00:37:57;;;;;;;20.30;2.67;;;7.00;99.90;;;;;;5072702;28;20404;-79
2023/01/14 00:40:23;;;;;;;18.33;2.53;;;7.00;99.90;;;;;;5072788;28;20029;-79
2023/01/14 00:42:48;;;;;;;19.47;3.33;;;7.00;99.90;;;;;;5055852;28;20032;-79
2023/01/14 00:45:14;;;;;;;22.80;2.70;;;7.00;99.90;;;;;;5055915;28;20027;-79
2023/01/14 00:47:40;;;;;;;19.70;3.27;;;7.00;99.90;;;;;;5072547;28;20104;-79
2023/01/14 00:50:06;;;;;;;18.90;2.83;;;6.90;99.90;;;;;;5072677;28;20078;-79
2023/01/14 00:52:31;;;;;;;27.17;3.30;;;7.00;99.90;;;;;;5073287;28;20032;-78
2023/01/14 00:54:57;;;;;;;14.17;2.70;;;7.00;99.90;;;;;;5072591;28;20162;-79
2023/01/14 00:57:23;;;;;;;27.97;3.40;;;7.00;99.90;;;;;;5055910;28;20029;-79
2023/01/14 00:59:48;;;;;;;24.53;3.27;;;7.10;99.90;;;;;;5055794;28;20113;-79
2023/01/14 01:02:14;;;;;;;21.60;3.87;;;7.10;99.90;;;;;;5072765;28;20086;-79
2023/01/14 01:04:39;;;;;;;25.57;3.03;;;7.10;99.90;;;;;;5072238;28;20082;-79
2023/01/14 01:07:05;;;;;;;30.60;3.43;;;7.10;99.90;;;;;;5054928;28;20420;-79
2023/01/14 01:09:31;;;;;;;20.27;2.77;;;7.10;99.90;;;;;;5055657;28;20354;-78
2023/01/14 01:11:56;;;;;;;23.70;3.67;;;7.10;99.90;;;;;;5072237;28;20042;-78
2023/01/14 01:14:23;;;;;;;20.17;2.57;;;7.00;99.90;;;;;;5072388;28;20483;-79
2023/01/14 01:16:49;;;;;;;21.20;3.03;;;7.10;99.90;;;;;;5055968;28;20031;-78
2023/01/14 01:19:15;;;;;;;21.77;2.80;;;7.10;99.90;;;;;;5073464;28;20025;-79
2023/01/14 01:21:41;;;;;;;22.47;3.10;;;7.10;99.90;;;;;;5073508;28;20452;-79
2023/01/14 01:24:06;;;;;;;16.77;3.33;;;7.10;99.90;;;;;;5055550;28;20115;-78
2023/01/14 01:26:32;;;;;;;30.43;3.67;;;7.00;99.90;;;;;;5073413;28;20029;-78
2023/01/14 01:28:58;;;;;;;24.83;3.57;;;7.10;99.90;;;;;;5055589;28;20044;-78
2023/01/14 01:31:25;;;;;;;17.63;3.07;;;7.10;99.90;;;;;;5073400;28;20074;-78
2023/01/14 01:33:51;;;;;;;26.70;3.10;;;7.10;99.90;;;;;;5071981;28;20020;-79
2023/01/14 01:36:19;;;;;;;27.30;4.00;;;7.00;99.90;;;;;;5072126;28;20046;-79
2023/01/14 01:38:45;;;;;;;19.47;2.97;;;7.00;99.90;;;;;;5055374;28;20025;-78
2023/01/14 01:41:19;;;;;;;18.23;2.40;;;7.00;99.90;;;;;;5073264;28;20360;-78
2023/01/14 01:44:07;;;;;;;14.45;2.25;;;7.00;99.90;;;;;;5071728;28;20650;-78
2023/01/14 01:46:34;;;;;;;26.37;3.60;;;6.90;99.90;;;;;;5071764;28;20024;-78
2023/01/14 01:49:05;;;;;;;24.17;3.20;;;6.80;99.90;;;;;;5071945;28;20056;-78
2023/01/14 01:51:37;;;;;;;16.37;2.40;;;6.90;99.90;;;;;;5073089;28;20021;-79
2023/01/14 01:54:03;;;;;;;22.57;3.23;;;6.80;99.90;;;;;;5073149;28;20025;-78
2023/01/14 01:56:33;;;;;;;15.83;2.93;;;6.80;99.90;;;;;;5073606;28;20032;-79
2023/01/14 01:59:02;;;;;;;24.57;2.53;;;6.80;99.90;;;;;;5073099;28;20446;-78
2023/01/14 02:01:28;;;;;;;21.70;3.23;;;6.70;99.90;;;;;;5072059;28;20337;-78
2023/01/14 02:03:54;;;;;;;19.60;2.27;;;6.80;99.90;;;;;;5071995;28;20066;-79
2023/01/14 02:06:19;;;;;;;21.23;2.30;;;6.70;99.90;;;;;;5071910;28;20384;-78
2023/01/14 02:08:50;;;;;;;20.73;2.30;;;6.60;99.90;;;;;;5072880;28;20029;-78
2023/01/14 02:11:18;;;;;;;20.70;3.27;;;6.60;99.90;;;;;;5073233;28;20025;-78
2023/01/14 02:14:09;;;;;;;23.60;3.60;;;6.70;99.90;;;;;;5073141;28;20028;-78
2023/01/14 02:17:00;;;;;;;25.93;3.27;;;6.60;99.90;;;;;;5062664;28;20078;-78
2023/01/14 02:19:47;;;;;;;25.23;2.87;;;6.60;99.90;;;;;;5075687;28;20082;-78
2023/01/14 02:22:43;;;;;;;15.17;2.23;;;6.60;99.90;;;;;;5075210;28;20036;-78
2023/01/14 02:25:28;;;;;;;21.33;2.67;;;6.60;99.90;;;;;;5076963;28;21071;-78
2023/01/14 02:28:35;;;;;;;15.50;2.80;;;6.60;99.90;;;;;;5076799;28;20365;-78
2023/01/14 02:31:16;;;;;;;27.27;3.67;;;6.50;99.90;;;;;;5063660;28;20044;-78
2023/01/14 02:33:54;;;;;;;23.30;3.03;;;6.50;99.90;;;;;;5075035;28;20113;-78
2023/01/14 02:36:29;;;;;;;18.43;2.50;;;6.40;99.90;;;;;;5075435;28;20480;-78
2023/01/14 02:39:24;;;;;;;25.43;3.80;;;6.40;99.90;;;;;;5076326;28;20028;-78
2023/01/14 02:44:56;;;;;;;21.63;3.50;;;6.30;99.90;;;;;;5077554;28;20039;-78
2023/01/14 02:47:26;;;;;;;27.53;3.67;;;6.30;99.90;;;;;;5076970;28;20031;-78
2023/01/14 02:49:56;;;;;;;33.77;4.63;;;6.30;99.90;;;;;;5076487;28;20028;-78
2023/01/14 02:52:22;;;;;;;33.80;4.87;;;6.30;99.90;;;;;;5077717;28;20452;-78
2023/01/14 02:54:57;;;;;;;21.20;4.10;;;6.20;99.90;;;;;;5077918;28;20094;-79
2023/01/14 02:57:48;;;;;;;28.60;3.87;;;6.20;99.90;;;;;;5076361;28;20025;-78
2023/01/14 03:00:36;;;;;;;27.30;3.73;;;6.20;99.90;;;;;;5075269;28;20090;-78
2023/01/14 03:03:34;;;;;;;24.00;3.67;;;6.10;99.90;;;;;;5074793;28;20035;-78
2023/01/14 03:06:11;;;;;;;27.03;4.07;;;6.10;99.90;;;;;;5063316;28;20033;-78
2023/01/14 03:08:57;;;;;;;16.50;3.23;;;6.10;99.90;;;;;;5074836;28;20038;-78
2023/01/14 03:11:27;;;;;;;27.27;5.03;;;6.10;99.90;;;;;;5070543;28;20493;-78
2023/01/14 03:14:04;;;;;;;26.90;4.23;;;6.10;99.90;;;;;;5075856;28;20024;-78
2023/01/14 03:16:43;;;;;;;39.73;5.13;;;6.10;99.90;;;;;;5075770;28;20109;-78
2023/01/14 03:19:20;;;;;;;35.70;4.63;;;6.00;99.90;;;;;;5075757;28;20028;-78
2023/01/14 03:21:52;;;;;;;38.00;4.90;;;6.00;99.90;;;;;;5075736;28;20534;-78
2023/01/14 03:24:33;;;;;;;20.93;4.20;;;6.00;99.90;;;;;;5075914;28;20028;-78
2023/01/14 03:27:07;;;;;;;33.10;3.83;;;6.00;99.90;;;;;;5075656;28;20029;-78
2023/01/14 03:29:44;;;;;;;36.53;4.40;;;6.00;99.90;;;;;;5074369;28;20481;-78
2023/01/14 03:32:24;;;;;;;32.83;4.93;;;5.90;99.90;;;;;;5075393;28;20024;-78
2023/01/14 03:35:06;;;;;;;32.50;3.70;;;5.90;99.90;;;;;;5075479;28;20024;-78
2023/01/14 03:37:33;;;;;;;38.27;4.23;;;5.90;99.90;;;;;;5075575;28;20043;-78
2023/01/14 03:40:01;;;;;;;17.13;3.33;;;5.90;99.90;;;;;;5075611;28;20025;-78
2023/01/14 03:42:32;;;;;;;26.20;4.03;;;5.90;99.90;;;;;;5075002;28;20036;-78
2023/01/14 03:45:03;;;;;;;38.53;4.57;;;5.90;99.90;;;;;;5075067;28;20097;-78
2023/01/14 03:47:35;;;;;;;22.17;3.70;;;5.90;99.90;;;;;;5074033;28;20024;-78
2023/01/14 03:50:05;;;;;;;26.90;4.40;;;5.90;99.90;;;;;;5075360;28;20100;-78
2023/01/14 03:52:48;;;;;;;29.67;4.13;;;5.90;99.90;;;;;;5073904;28;20540;-78
2023/01/14 03:55:24;;;;;;;25.87;4.23;;;5.90;99.90;;;;;;5075299;28;20032;-78
2023/01/14 03:58:01;;;;;;;29.07;3.47;;;5.90;99.90;;;;;;5073984;28;20078;-78
2023/01/14 04:00:34;;;;;;;28.90;4.50;;;5.90;99.90;;;;;;5074947;28;20016;-78
2023/01/14 04:03:03;;;;;;;33.30;5.40;;;5.90;99.90;;;;;;5073466;28;20028;-78
2023/01/14 04:05:29;;;;;;;35.10;4.77;;;5.90;99.90;;;;;;5074803;28;20046;-78
2023/01/14 04:07:57;;;;;;;28.43;3.87;;;5.90;99.90;;;;;;5073600;28;20020;-78
2023/01/14 04:10:23;;;;;;;45.83;5.57;;;5.90;99.90;;;;;;5073701;28;20043;-78
2023/01/14 04:15:33;;;;;;;;;;;6.00;99.90;;;;;;5074370;28;20047;-78
2023/01/14 04:17:59;;;;;;;37.97;3.97;;;6.00;99.90;;;;;;5074014;28;19908;-78
2023/01/14 04:20:24;;;;;;;28.80;4.13;;;6.00;99.90;;;;;;5074356;28;20060;-78
2023/01/14 04:22:50;;;;;;;27.47;4.13;;;6.00;99.90;;;;;;5073418;28;20039;-78
2023/01/14 04:25:15;;;;;;;26.80;4.63;;;6.00;99.90;;;;;;5073215;28;20025;-78
2023/01/14 04:27:41;;;;;;;32.43;4.70;;;6.00;99.90;;;;;;5073509;28;20064;-78
2023/01/14 04:30:07;;;;;;;37.10;4.47;;;6.00;99.90;;;;;;5072803;28;20044;-78
2023/01/14 04:32:33;;;;;;;28.63;3.57;;;6.00;99.90;;;;;;5073413;28;20036;-78
2023/01/14 04:34:59;;;;;;;34.77;6.70;;;6.10;99.90;;;;;;5073052;28;20036;-78
2023/01/14 04:37:24;;;;;;;29.73;5.37;;;6.10;99.90;;;;;;5072885;28;20111;-78
2023/01/14 04:39:51;;;;;;;35.13;4.67;;;6.10;99.90;;;;;;5073841;28;20029;-78
2023/01/14 04:42:26;;;;;;;32.70;4.30;;;6.10;99.90;;;;;;5089699;28;20036;-78
2023/01/14 04:44:52;;;;;;;37.50;4.53;;;6.10;99.90;;;;;;5073906;28;20032;-78
2023/01/14 04:47:18;;;;;;;32.83;4.90;;;6.10;99.90;;;;;;5072425;28;20028;-79
2023/01/14 04:49:43;;;;;;;37.77;4.13;;;6.20;99.90;;;;;;5073736;28;20078;-78
2023/01/14 04:52:09;;;;;;;29.77;4.17;;;6.20;99.90;;;;;;5073707;28;20074;-78
2023/01/14 04:54:35;;;;;;;39.97;4.30;;;6.20;99.90;;;;;;5073713;28;20036;-78
2023/01/14 04:57:00;;;;;;;36.73;4.43;;;6.20;99.90;;;;;;5073530;28;20473;-78
2023/01/14 04:59:26;;;;;;;42.17;5.87;;;6.20;99.90;;;;;;5055704;28;20052;-78
2023/01/14 05:01:51;;;;;;;21.03;4.37;;;6.20;99.90;;;;;;5072302;28;20024;-78
2023/01/14 05:04:17;;;;;;;27.70;4.37;;;6.20;99.90;;;;;;5072566;28;20070;-78
2023/01/14 05:06:43;;;;;;;34.33;4.97;;;6.20;99.90;;;;;;5072796;28;20028;-78
2023/01/14 05:09:08;;;;;;;36.37;4.43;;;6.20;99.90;;;;;;5072685;28;20025;-78
2023/01/14 05:11:34;;;;;;;28.53;3.63;;;6.20;99.90;;;;;;5073586;28;20048;-78
2023/01/14 05:14:00;;;;;;;33.83;4.47;;;6.20;99.90;;;;;;5072412;28;20035;-78
2023/01/14 05:16:26;;;;;;;25.37;3.43;;;6.20;99.90;;;;;;5073727;28;20096;-78
2023/01/14 05:18:52;;;;;;;31.07;4.13;;;6.30;99.90;;;;;;5073525;28;20045;-78
2023/01/14 05:21:19;;;;;;;31.37;3.83;;;6.20;99.90;;;;;;5071979;28;20055;-78
2023/01/14 05:23:45;;;;;;;32.87;4.13;;;6.20;99.90;;;;;;5055479;28;20021;-78
2023/01/14 05:26:11;;;;;;;33.17;5.00;;;6.20;99.90;;;;;;5073641;28;20031;-78
2023/01/14 05:28:37;;;;;;;39.37;5.37;;;6.20;99.90;;;;;;5071818;28;20032;-78
2023/01/14 05:31:03;;;;;;;33.43;4.40;;;6.30;99.90;;;;;;5055262;28;20029;-78
2023/01/14 05:33:29;;;;;;;32.77;5.40;;;6.30;99.90;;;;;;5073202;28;20024;-78
2023/01/14 05:35:56;;;;;;;37.57;5.47;;;6.30;99.90;;;;;;5073341;28;20028;-78
2023/01/14 05:38:21;;;;;;;28.50;4.53;;;6.30;99.90;;;;;;5071926;28;20024;-78
2023/01/14 05:40:47;;;;;;;26.00;3.70;;;6.30;99.90;;;;;;5073152;28;20417;-78
2023/01/14 05:46:01;;;;;;;24.02;3.83;;;6.20;99.90;;;;;;5073520;28;20036;-78
2023/01/14 05:48:27;;;;;;;26.77;4.80;;;6.30;99.90;;;;;;5072995;28;20031;-78
2023/01/14 05:50:55;;;;;;;25.30;4.57;;;6.30;99.90;;;;;;5071940;28;20447;-78
2023/01/14 05:53:22;;;;;;;32.13;4.00;;;6.40;99.90;;;;;;5075519;28;20066;-77
2023/01/14 05:55:48;;;;;;;26.67;3.63;;;6.30;99.90;;;;;;5077262;28;20025;-77
2023/01/14 05:58:14;;;;;;;37.27;4.13;;;6.40;99.90;;;;;;5077153;28;20031;-77
2023/01/14 06:06:28;;;;;;;28.80;4.47;;;6.40;99.90;;;;;;5070330;28;20031;-77
2023/01/14 06:09:03;;;;;;;32.77;3.37;;;6.40;99.90;;;;;;5059790;28;20025;-78
2023/01/14 06:11:32;;;;;;;20.00;3.17;;;6.40;99.90;;;;;;5055161;28;20017;-77
2023/01/14 06:13:58;;;;;;;24.20;4.70;;;6.40;99.90;;;;;;5056509;28;20027;-77
2023/01/14 06:16:28;;;;;;;30.03;4.47;;;6.40;99.90;;;;;;5055580;28;20469;-77
2023/01/14 06:18:55;;;;;;;20.97;3.53;;;6.40;99.90;;;;;;5056851;28;20032;-77
2023/01/14 06:21:27;;;;;;;28.37;4.77;;;6.30;99.90;;;;;;5056731;28;20025;-77
2023/01/14 06:23:53;;;;;;;32.00;3.97;;;6.40;99.90;;;;;;5055462;28;20021;-78
2023/01/14 06:26:19;;;;;;;30.40;3.93;;;6.40;99.90;;;;;;5055394;28;20036;-78
2023/01/14 06:28:46;;;;;;;20.93;3.50;;;6.40;99.90;;;;;;5056624;28;20473;-78
2023/01/14 06:31:18;;;;;;;29.57;3.33;;;6.50;99.90;;;;;;5055853;28;20025;-78
2023/01/14 06:33:45;;;;;;;23.93;3.37;;;6.50;99.90;;;;;;5055381;28;20021;-78
2023/01/14 06:36:13;;;;;;;23.57;3.70;;;6.50;99.90;;;;;;5038898;28;20499;-78
2023/01/14 06:38:39;;;;;;;37.07;5.10;;;6.50;99.90;;;;;;5056808;28;20017;-78
2023/01/14 06:41:07;;;;;;;30.80;4.53;;;6.60;99.90;;;;;;5042713;28;20678;-78
2023/01/14 06:43:34;;;;;;;29.97;4.30;;;6.60;99.90;;;;;;5059413;28;20151;-78
2023/01/14 06:46:00;;;;;;;29.60;4.03;;;6.60;99.90;;;;;;5051530;28;20021;-78
2023/01/14 06:48:25;;;;;;;25.83;4.00;;;6.60;99.90;;;;;;5068716;28;20492;-78
2023/01/14 06:51:01;;;;;;;29.87;4.03;;;6.70;99.90;;;;;;5054694;28;20109;-78
2023/01/14 06:53:26;;;;;;;33.33;4.37;;;6.70;99.90;;;;;;5055361;28;20025;-78
2023/01/14 06:55:52;;;;;;;21.27;3.23;;;6.70;99.90;;;;;;5055071;28;20366;-78
2023/01/14 06:58:18;;;;;;;21.90;3.90;;;6.70;99.90;;;;;;5055163;28;20036;-78
2023/01/14 07:00:43;;;;;;;28.47;4.40;;;6.70;99.90;;;;;;5055978;28;20488;-78
2023/01/14 07:03:09;;;;;;;26.10;3.03;;;6.70;99.90;;;;;;5054356;28;20034;-78
2023/01/14 07:05:34;;;;;;;26.57;3.60;;;6.80;99.90;;;;;;5053783;28;20017;-78
2023/01/14 07:08:00;;;;;;;30.43;4.07;;;6.80;99.90;;;;;;5054838;28;20074;-78
2023/01/14 07:10:26;;;;;;;22.87;3.73;;;6.80;99.90;;;;;;5054786;28;20060;-78
2023/01/14 07:12:52;;;;;;;25.77;4.03;;;6.80;99.90;;;;;;5054194;28;20458;-78
2023/01/14 07:15:19;;;;;;;23.17;3.70;;;6.80;99.90;;;;;;5055694;28;20090;-78
2023/01/14 07:17:46;;;;;;;30.77;4.03;;;6.80;99.90;;;;;;5055210;28;20021;-78
2023/01/14 07:20:12;;;;;;;20.93;2.90;;;6.80;99.90;;;;;;5037651;28;20159;-78
2023/01/14 07:22:38;;;;;;;28.93;3.83;;;6.80;99.90;;;;;;5053864;28;20051;-78
2023/01/14 07:25:05;;;;;;;24.10;3.10;;;6.80;99.90;;;;;;5037350;28;20032;-78
2023/01/14 07:27:31;;;;;;;36.13;3.67;;;6.80;99.90;;;;;;5053701;28;20120;-78
2023/01/14 07:29:58;;;;;;;19.80;4.00;;;6.80;99.90;;;;;;5054895;28;20128;-78
2023/01/14 07:32:24;;;;;;;24.80;3.60;;;6.70;99.90;;;;;;5033955;28;20022;-79
2023/01/14 07:34:49;;;;;;;22.53;3.70;;;6.80;99.90;;;;;;5053781;28;20108;-78
2023/01/14 07:37:15;;;;;;;28.50;3.90;;;6.70;99.90;;;;;;5053833;28;20124;-78
2023/01/14 07:39:41;;;;;;;24.47;3.07;;;6.70;99.90;;;;;;5034091;28;20025;-78
2023/01/14 07:42:07;;;;;;;24.17;3.37;;;6.80;99.90;;;;;;5057057;28;20508;-78
2023/01/14 07:44:32;;;;;;;22.87;3.87;;;6.70;99.90;;;;;;5045046;28;20033;-79
2023/01/14 07:46:58;;;;;;;23.33;3.60;;;6.60;99.90;;;;;;5037445;28;20021;-78
2023/01/14 07:49:25;;;;;;;22.70;3.20;;;6.70;99.90;;;;;;5055166;28;20473;-78
2023/01/14 07:51:51;;;;;;;19.00;3.70;;;6.70;99.90;;;;;;5053970;28;20090;-78
2023/01/14 07:54:17;;;;;;;23.43;3.93;;;6.70;99.90;;;;;;5054751;28;20108;-78
2023/01/14 07:56:43;;;;;;;23.37;3.90;;;6.70;99.90;;;;;;5055097;28;20366;-78
2023/01/14 07:59:09;;;;;;;29.77;4.00;;;6.70;99.90;;;;;;5054540;28;20028;-78
2023/01/14 08:01:35;;;;;;;24.40;3.43;;;6.70;99.90;;;;;;5036962;28;20565;-78
2023/01/14 08:04:01;;;;;;;21.80;3.33;;;6.70;99.90;;;;;;5054603;28;20102;-78
2023/01/14 08:06:28;;;;;;;21.03;3.60;;;6.70;99.90;;;;;;5054919;28;20052;-78
2023/01/14 08:08:54;;;;;;;30.30;4.60;;;6.70;99.90;;;;;;5054849;28;20075;-79
2023/01/14 08:11:20;;;;;;;22.03;3.93;;;6.70;99.90;;;;;;5033636;28;20367;-78
2023/01/14 08:13:45;;;;;;;24.30;4.10;;;6.70;99.90;;;;;;5050001;28;20021;-78
2023/01/14 08:16:13;;;;;;;22.30;3.53;;;6.70;99.90;;;;;;5050014;28;20029;-78
2023/01/14 08:18:38;;;;;;;20.77;3.87;;;6.70;99.90;;;;;;5061036;28;20029;-78
2023/01/14 08:21:06;;;;;;;18.53;3.60;;;6.70;99.90;;;;;;5049616;28;20036;-78
2023/01/14 08:23:33;;;;;;;24.20;3.40;;;6.70;99.90;;;;;;5054656;28;20116;-78
2023/01/14 08:26:00;;;;;;;25.47;4.13;;;6.70;99.90;;;;;;5054364;28;20028;-78
2023/01/14 08:28:25;;;;;;;25.50;5.27;;;6.80;99.90;;;;;;5036515;28;20025;-78
2023/01/14 08:31:12;;;;;;;22.60;4.20;;;6.70;99.90;;;;;;5070006;28;20068;-78
2023/01/14 08:33:39;;;;;;;17.07;4.73;;;6.80;99.90;;;;;;5053468;28;20075;-78
2023/01/14 08:36:08;;;;;;;16.83;4.07;;;6.80;99.90;;;;;;5053863;28;20037;-79
2023/01/14 08:38:36;;;;;;;23.73;5.57;;;6.80;99.90;;;;;;5054163;28;20162;-78
2023/01/14 08:41:14;;;;;;;22.57;6.03;;;6.80;99.90;;;;;;5053126;28;20036;-78
2023/01/14 08:43:41;;;;;;;20.70;4.77;;;6.80;99.90;;;;;;5069411;28;20040;-78
2023/01/14 08:46:09;;;;;;;27.20;5.03;;;6.90;99.90;;;;;;5086368;28;20434;-78
2023/01/14 08:48:35;;;;;;;17.70;5.87;;;6.90;99.90;;;;;;5086414;28;20112;-77
2023/01/14 08:51:03;;;;;;;17.20;4.10;;;6.90;99.90;;;;;;5054160;28;20017;-78
2023/01/14 08:53:29;;;;;;;20.57;5.10;;;6.90;99.90;;;;;;5052973;28;20055;-78
2023/01/14 08:55:57;;;;;;;18.13;4.03;;;6.90;99.90;;;;;;5086250;28;20033;-78
2023/01/14 08:58:23;;;;;;;22.63;5.30;;;6.90;99.90;;;;;;5086319;28;20119;-79
2023/01/14 09:00:48;;;;;;;15.97;5.50;;;6.90;99.90;;;;;;5053719;28;20025;-77
2023/01/14 09:03:14;;;;;;;15.80;4.60;;;7.00;99.90;;;;;;5053716;28;20027;-78
2023/01/14 09:05:40;;;;;;;13.70;4.80;;;7.00;99.90;;;;;;5053704;28;20068;-78
2023/01/14 09:19:06;;;;;;;20.63;3.27;;;7.20;99.90;;;;;;5053825;28;20040;-78
2023/01/14 09:21:32;;;;;;;18.07;3.23;;;7.20;99.90;;;;;;5052287;28;20033;-78
2023/01/14 09:23:58;;;;;;;13.20;3.03;;;7.20;99.90;;;;;;5035556;28;20021;-79
2023/01/14 09:26:23;;;;;;;14.10;3.73;;;7.30;99.90;;;;;;5034970;28;20455;-78
2023/01/14 09:28:50;;;;;;;15.27;3.37;;;7.30;99.90;;;;;;5051888;28;20504;-79
2023/01/14 09:31:15;;;;;;;12.40;3.17;;;7.40;99.90;;;;;;5051865;28;20538;-79
2023/01/14 09:33:41;;;;;;;11.27;3.00;;;7.30;99.90;;;;;;5052068;28;20028;-79
2023/01/14 09:36:07;;;;;;;17.37;3.93;;;7.40;99.90;;;;;;5052064;28;20032;-79
2023/01/14 09:38:33;;;;;;;10.40;2.90;;;7.40;99.90;;;;;;5035269;28;20082;-80
2023/01/14 09:40:58;;;;;;;19.07;3.00;;;7.40;99.90;;;;;;5052214;28;20419;-79
2023/01/14 09:43:27;;;;;;;14.27;3.03;;;7.50;99.90;;;;;;5033646;28;20029;-78
2023/01/14 09:45:59;;;;;;;11.27;2.70;;;7.40;99.90;;;;;;5050762;28;20523;-78
2023/01/14 09:48:26;;;;;;;12.37;3.27;;;7.50;99.90;;;;;;5053493;28;20075;-78
2023/01/14 09:50:57;;;;;;;16.53;2.60;;;7.50;99.90;;;;;;5036198;28;20500;-79
2023/01/14 09:53:56;;;;;;;17.27;3.50;;;7.50;99.90;;;;;;5054188;28;20037;-78
2023/01/14 09:57:02;;;;;;;14.97;2.70;;;7.60;99.90;;;;;;5052592;28;20025;-80
2023/01/14 09:59:50;;;;;;;11.77;2.20;;;7.60;99.90;;;;;;5051126;28;20508;-79
2023/01/14 10:02:42;;;;;;;9.90;2.23;;;7.60;99.90;;;;;;5051720;28;20086;-79
2023/01/14 10:05:23;;;;;;;13.90;2.53;;;7.60;99.90;;;;;;5052682;28;20112;-78
2023/01/14 10:07:49;;;;;;;12.70;2.20;;;7.50;99.90;;;;;;5051858;28;20023;-79
2023/01/14 10:10:29;;;;;;;8.63;2.47;;;7.60;99.90;;;;;;5053132;28;20036;-78
2023/01/14 10:12:57;;;;;;;11.17;2.13;;;7.60;99.90;;;;;;5052154;28;20040;-78
2023/01/14 10:15:28;;;;;;;8.90;2.10;;;7.60;99.90;;;;;;5053008;28;20039;-78
2023/01/14 10:17:57;;;;;;;6.93;2.27;;;7.70;99.90;;;;;;5051178;28;20044;-79
2023/01/14 10:20:41;;;;;;;13.77;2.43;;;7.70;99.90;;;;;;5051391;28;20124;-79
2023/01/14 10:23:14;;;;;;;8.85;1.95;;;7.70;99.90;;;;;;5051567;28;20036;-78
2023/01/14 10:25:47;;;;;;;10.20;2.10;;;7.70;99.90;;;;;;5085384;28;20021;-80
2023/01/14 10:28:15;;;;;;;11.47;2.77;;;7.70;99.90;;;;;;5085061;28;20017;-80
2023/01/14 10:30:47;;;;;;;11.90;2.53;;;7.70;99.90;;;;;;5085130;28;20481;-80
2023/01/14 10:33:15;;;;;;;12.23;2.80;;;7.70;99.90;;;;;;5085498;28;20435;-79
2023/01/14 10:36:02;;;;;;;8.30;2.40;;;7.80;99.90;;;;;;5085318;28;20028;-80
2023/01/14 10:38:29;;;;;;;13.40;2.67;;;7.80;99.90;;;;;;5051857;28;20087;-80
2023/01/14 10:40:59;;;;;;;12.17;2.83;;;7.80;99.90;;;;;;5056435;28;20032;-80
2023/01/14 10:43:31;;;;;;;8.27;2.40;;;7.80;99.90;;;;;;5088715;28;20060;-80
2023/01/14 10:45:57;;;;;;;9.80;2.40;;;7.80;99.90;;;;;;5055398;28;20017;-79
2023/01/14 10:48:25;;;;;;;8.37;2.53;;;7.80;99.90;;;;;;5060778;28;20029;-79
2023/01/14 10:50:51;;;;;;;14.53;2.83;;;7.90;99.90;;;;;;5018739;28;20458;-80
2023/01/14 10:53:22;;;;;;;15.30;3.20;;;7.90;99.90;;;;;;5036423;28;20064;-79
2023/01/14 10:55:58;;;;;;;11.30;2.13;;;7.90;99.90;;;;;;5034992;28;20021;-80
2023/01/14 10:58:45;;;;;;;11.93;2.53;;;7.90;99.90;;;;;;5053595;28;20028;-79
2023/01/14 11:01:11;;;;;;;9.70;2.00;;;8.00;99.90;;;;;;5038667;28;20114;-79
2023/01/14 11:03:42;;;;;;;10.83;2.53;;;8.00;99.90;;;;;;5056176;28;20029;-81
2023/01/14 11:06:17;;;;;;;14.33;3.70;;;8.00;99.90;;;;;;5088440;28;20021;-79
2023/01/14 11:08:50;;;;;;;16.27;3.27;;;8.10;99.90;;;;;;5088369;28;20100;-79
2023/01/14 11:11:25;;;;;;;10.93;3.90;;;8.10;99.90;;;;;;5056190;28;20036;-80
2023/01/14 11:13:54;;;;;;;14.47;2.30;;;8.10;99.90;;;;;;5055672;28;20032;-79
2023/01/14 11:16:27;;;;;;;9.67;2.30;;;8.20;99.90;;;;;;5087998;28;20021;-81
2023/01/14 11:18:59;;;;;;;13.90;2.70;;;8.20;99.90;;;;;;5054305;28;20028;-79
2023/01/14 11:21:34;;;;;;;9.70;2.13;;;8.20;99.90;;;;;;5054441;28;20021;-78
2023/01/14 11:24:06;;;;;;;7.47;2.57;;;8.20;99.90;;;;;;5078775;28;20061;-80
2023/01/14 11:26:39;;;;;;;12.07;2.00;;;8.30;99.90;;;;;;5080375;28;20059;-79
2023/01/14 11:29:22;;;;;;;14.70;3.70;;;8.30;99.90;;;;;;5075671;28;20014;-80
2023/01/14 11:32:18;;;;;;;10.40;2.27;;;8.40;99.90;;;;;;5078541;28;20112;-80
2023/01/14 11:34:56;;;;;;;14.63;2.23;;;8.40;99.90;;;;;;5087776;28;20021;-79
2023/01/14 11:37:25;;;;;;;13.33;2.07;;;8.40;99.90;;;;;;5084289;28;20075;-79
2023/01/14 11:39:55;;;;;;;10.30;2.20;;;8.50;99.90;;;;;;5053681;28;20178;-81
2023/01/14 11:42:22;;;;;;;8.67;3.07;;;8.50;99.90;;;;;;5055347;28;20393;-78
2023/01/14 11:45:15;;;;;;;7.07;1.77;;;8.50;99.90;;;;;;5055851;28;20028;-79
2023/01/14 11:47:49;;;;;;;9.33;1.70;;;8.50;99.90;;;;;;5054361;28;20044;-82
2023/01/14 11:50:25;;;;;;;4.77;1.40;;;8.50;99.90;;;;;;5053103;28;20021;-78
2023/01/14 11:53:18;;;;;;;10.30;2.00;;;8.60;99.90;;;;;;5054361;28;20032;-79
2023/01/14 11:55:47;;;;;;;6.43;2.00;;;8.60;99.90;;;;;;5055467;28;20028;-79
2023/01/14 11:58:19;;;;;;;10.13;2.30;;;8.60;99.90;;;;;;5053867;28;20036;-79
2023/01/14 12:00:54;;;;;;;5.60;2.20;;;8.70;99.90;;;;;;5053627;28;20025;-78
2023/01/14 12:03:33;;;;;;;7.30;2.23;;;8.70;99.90;;;;;;5053789;28;20473;-81
2023/01/14 12:06:01;;;;;;;7.00;1.50;;;8.70;99.90;;;;;;5054106;28;20461;-76
2023/01/14 12:08:30;;;;;;;7.13;1.80;;;8.80;99.90;;;;;;5053820;28;20528;-77
2023/01/14 12:11:00;;;;;;;8.47;1.80;;;8.80;99.90;;;;;;5053704;28;20025;-76
2023/01/14 12:19:24;;;;;;;8.67;2.90;;;8.80;99.90;;;;;;5054732;28;20166;-77
2023/01/14 12:22:19;;;;;;;6.27;1.93;;;8.80;99.90;;;;;;5053576;28;20025;-77
2023/01/14 12:25:17;;;;;;;7.32;2.60;;;8.90;99.90;;;;;;5053698;28;20033;-77
2023/01/14 12:28:03;;;;;;;7.70;2.63;;;8.90;99.90;;;;;;5052893;28;20497;-76
2023/01/14 12:30:40;;;;;;;7.07;2.43;;;8.90;99.90;;;;;;5052437;28;20120;-77
2023/01/14 12:33:09;;;;;;;6.27;2.30;;;8.90;99.90;;;;;;5053596;28;20033;-77
2023/01/14 12:36:14;;;;;;;7.20;2.87;;;8.90;99.90;;;;;;5052118;28;20503;-76
2023/01/14 12:47:18;;;;;;;7.53;2.43;;;9.00;99.90;;;;;;5067843;28;20035;-79
2023/01/14 12:49:44;;;;;;;7.93;2.60;;;9.00;99.90;;;;;;5035800;28;20021;-79
2023/01/14 12:52:12;;;;;;;7.50;2.37;;;9.00;99.90;;;;;;5035027;28;20499;-80
2023/01/14 12:54:40;;;;;;;8.10;2.33;;;9.00;99.90;;;;;;5049374;28;20116;-79
2023/01/14 12:57:07;;;;;;;6.30;2.97;;;9.00;99.90;;;;;;5034544;28;20067;-77
2023/01/14 12:59:38;;;;;;;7.07;2.33;;;9.00;99.90;;;;;;5034496;28;20025;-81
2023/01/14 13:02:16;;;;;;;7.20;2.43;;;9.00;99.90;;;;;;5052087;28;20430;-80
2023/01/14 13:04:59;;;;;;;6.17;2.37;;;9.00;99.90;;;;;;5050691;28;20094;-80
2023/01/14 13:07:32;;;;;;;12.02;2.30;;;9.10;99.90;;;;;;5051439;28;20460;-81
2023/01/14 13:10:02;;;;;;;4.10;2.23;;;9.10;99.90;;;;;;5052243;28;20033;-80
2023/01/14 13:12:30;;;;;;;5.27;2.33;;;9.10;99.90;;;;;;5052467;28;20028;-81
2023/01/14 13:15:03;;;;;;;7.60;2.63;;;9.10;99.90;;;;;;5053720;28;20457;-80
2023/01/14 13:17:37;;;;;;;5.53;2.53;;;9.10;99.90;;;;;;5053519;28;20139;-81
2023/01/14 13:20:23;;;;;;;4.47;2.40;;;9.10;99.90;;;;;;5052089;28;20021;-82
2023/01/14 13:22:50;;;;;;;7.50;2.70;;;9.10;99.90;;;;;;5051416;28;20033;-84
2023/01/14 13:25:30;;;;;;;4.60;2.33;;;9.10;99.90;;;;;;5052196;28;20025;-82
2023/01/14 13:27:56;;;;;;;4.23;2.60;;;9.20;99.90;;;;;;5052033;28;20028;-80
2023/01/14 13:30:21;;;;;;;6.13;3.00;;;9.20;99.90;;;;;;5035788;28;20037;-80
2023/01/14 13:32:59;;;;;;;9.77;3.20;;;9.20;99.90;;;;;;5052046;28;20104;-80
2023/01/14 13:35:27;;;;;;;8.20;3.40;;;9.10;99.90;;;;;;5053233;28;20395;-79
2023/01/14 13:37:55;;;;;;;5.30;2.80;;;9.20;99.90;;;;;;5052015;28;20032;-83
2023/01/14 13:40:27;;;;;;;5.83;3.17;;;9.30;99.90;;;;;;5035517;28;20020;-79
2023/01/14 13:43:17;;;;;;;6.33;3.07;;;9.20;99.90;;;;;;5051672;28;20029;-80
2023/01/14 13:45:53;;;;;;;5.07;2.37;;;9.30;99.90;;;;;;5036869;28;20025;-80